sensor_id;sensor_type;location;lat;lon;timestamp;temperature;humidity
64226;DHT22;50545;56.064;26.178;2023-08-06T00:01:02;18.60;99.90
64226;DHT22;50545;56.064;26.178;2023-08-06T00:03:31;18.60;99.90
64226;DHT22;50545;56.064;26.178;2023-08-06T00:06:01;18.60;99.90
64226;DHT22;50545;56.064;26.178;2023-08-06T00:08:30;18.60;99.90
64226;DHT22;50545;56.064;26.178;2023-08-06T00:10:57;18.60;99.90
64226;DHT22;50545;56.064;26.178;2023-08-06T00:13:25;18.60;99.90
64226;DHT22;50545;56.064;26.178;2023-08-06T00:15:52;18.70;99.90
64226;DHT22;50545;56.064;26.178;2023-08-06T00:18:20;18.70;99.90
64226;DHT22;50545;56.064;26.178;2023-08-06T00:20:47;18.70;99.90
64226;DHT22;50545;56.064;26.178;2023-08-06T00:23:15;18.70;99.90
64226;DHT22;50545;56.064;26.178;2023-08-06T00:25:43;18.70;99.90
64226;DHT22;50545;56.064;26.178;2023-08-06T00:28:10;18.70;99.90
64226;DHT22;50545;56.064;26.178;2023-08-06T00:30:39;18.70;99.90
64226;DHT22;50545;56.064;26.178;2023-08-06T00:33:08;18.70;99.90
64226;DHT22;50545;56.064;26.178;2023-08-06T00:35:35;18.70;99.90
64226;DHT22;50545;56.064;26.178;2023-08-06T00:38:03;18.70;99.90
64226;DHT22;50545;56.064;26.178;2023-08-06T00:40:33;18.70;99.90
64226;DHT22;50545;56.064;26.178;2023-08-06T00:43:02;18.70;99.90
64226;DHT22;50545;56.064;26.178;2023-08-06T00:45:37;18.70;99.90
64226;DHT22;50545;56.064;26.178;2023-08-06T00:48:06;18.70;99.90
64226;DHT22;50545;56.064;26.178;2023-08-06T00:50:36;18.70;99.90
64226;DHT22;50545;56.064;26.178;2023-08-06T00:53:03;18.70;99.90
64226;DHT22;50545;56.064;26.178;2023-08-06T00:55:31;18.70;99.90
64226;DHT22;50545;56.064;26.178;2023-08-06T00:57:59;18.70;99.90
64226;DHT22;50545;56.064;26.178;2023-08-06T01:00:27;18.70;99.90
64226;DHT22;50545;56.064;26.178;2023-08-06T01:02:55;18.70;99.90
64226;DHT22;50545;56.064;26.178;2023-08-06T01:05:22;18.70;99.90
64226;DHT22;50545;56.064;26.178;2023-08-06T01:13:43;18.70;99.90
64226;DHT22;50545;56.064;26.178;2023-08-06T01:16:19;18.70;99.90
64226;DHT22;50545;56.064;26.178;2023-08-06T01:18:48;18.70;99.90
64226;DHT22;50545;56.064;26.178;2023-08-06T01:21:19;18.70;99.90
64226;DHT22;50545;56.064;26.178;2023-08-06T01:23:47;18.60;99.90
64226;DHT22;50545;56.064;26.178;2023-08-06T01:26:32;18.60;99.90
64226;DHT22;50545;56.064;26.178;2023-08-06T01:29:28;18.70;99.90
64226;DHT22;50545;56.064;26.178;2023-08-06T01:31:59;18.60;99.90
64226;DHT22;50545;56.064;26.178;2023-08-06T01:34:30;18.60;99.90
64226;DHT22;50545;56.064;26.178;2023-08-06T01:36:59;18.60;99.90
64226;DHT22;50545;56.064;26.178;2023-08-06T01:39:28;18.60;99.90
64226;DHT22;50545;56.064;26.178;2023-08-06T01:41:55;18.60;99.90
64226;DHT22;50545;56.064;26.178;2023-08-06T01:44:23;18.50;99.90
64226;DHT22;50545;56.064;26.178;2023-08-06T01:46:50;18.50;99.90
64226;DHT22;50545;56.064;26.178;2023-08-06T01:49:18;18.50;99.90
64226;DHT22;50545;56.064;26.178;2023-08-06T01:51:45;18.50;99.90
64226;DHT22;50545;56.064;26.178;2023-08-06T01:54:13;18.50;99.90
64226;DHT22;50545;56.064;26.178;2023-08-06T01:56:40;18.50;99.90
64226;DHT22;50545;56.064;26.178;2023-08-06T01:59:08;18.40;99.90
64226;DHT22;50545;56.064;26.178;2023-08-06T02:01:35;18.40;99.90
64226;DHT22;50545;56.064;26.178;2023-08-06T02:04:03;18.40;99.90
64226;DHT22;50545;56.064;26.178;2023-08-06T02:06:30;18.40;99.90
64226;DHT22;50545;56.064;26.178;2023-08-06T02:08:58;18.40;99.90
64226;DHT22;50545;56.064;26.178;2023-08-06T02:11:25;18.40;99.90
64226;DHT22;50545;56.064;26.178;2023-08-06T02:13:53;18.40;99.90
64226;DHT22;50545;56.064;26.178;2023-08-06T02:16:21;18.40;99.90
64226;DHT22;50545;56.064;26.178;2023-08-06T02:18:49;18.40;99.90
64226;DHT22;50545;56.064;26.178;2023-08-06T02:21:17;18.40;99.90
64226;DHT22;50545;56.064;26.178;2023-08-06T02:23:44;18.40;99.90
64226;DHT22;50545;56.064;26.178;2023-08-06T02:26:12;18.40;99.90
64226;DHT22;50545;56.064;26.178;2023-08-06T02:28:40;18.40;99.90
64226;DHT22;50545;56.064;26.178;2023-08-06T02:31:07;18.30;99.90
64226;DHT22;50545;56.064;26.178;2023-08-06T02:33:35;18.30;99.90
64226;DHT22;50545;56.064;26.178;2023-08-06T02:36:03;18.30;99.90
64226;DHT22;50545;56.064;26.178;2023-08-06T02:38:32;18.30;99.90
64226;DHT22;50545;56.064;26.178;2023-08-06T02:41:02;18.30;99.90
64226;DHT22;50545;56.064;26.178;2023-08-06T02:43:31;18.30;99.90
64226;DHT22;50545;56.064;26.178;2023-08-06T02:45:59;18.30;99.90
64226;DHT22;50545;56.064;26.178;2023-08-06T02:48:27;18.30;99.90
64226;DHT22;50545;56.064;26.178;2023-08-06T02:50:58;18.30;99.90
64226;DHT22;50545;56.064;26.178;2023-08-06T02:53:29;18.30;99.90
64226;DHT22;50545;56.064;26.178;2023-08-06T02:55:57;18.40;99.90
64226;DHT22;50545;56.064;26.178;2023-08-06T02:58:24;18.40;99.90
64226;DHT22;50545;56.064;26.178;2023-08-06T03:01:06;18.40;99.90
64226;DHT22;50545;56.064;26.178;2023-08-06T03:03:36;18.40;99.90
64226;DHT22;50545;56.064;26.178;2023-08-06T03:06:05;18.50;99.90
64226;DHT22;50545;56.064;26.178;2023-08-06T03:08:35;18.50;99.90
64226;DHT22;50545;56.064;26.178;2023-08-06T03:11:02;18.50;99.90
64226;DHT22;50545;56.064;26.178;2023-08-06T03:13:31;18.50;99.90
64226;DHT22;50545;56.064;26.178;2023-08-06T03:15:59;18.50;99.90
64226;DHT22;50545;56.064;26.178;2023-08-06T03:18:29;18.50;99.90
64226;DHT22;50545;56.064;26.178;2023-08-06T03:20:58;18.50;99.90
64226;DHT22;50545;56.064;26.178;2023-08-06T03:23:27;18.50;99.90
64226;DHT22;50545;56.064;26.178;2023-08-06T03:26:02;18.60;99.90
64226;DHT22;50545;56.064;26.178;2023-08-06T03:28:32;18.60;99.90
64226;DHT22;50545;56.064;26.178;2023-08-06T03:31:02;18.70;99.90
64226;DHT22;50545;56.064;26.178;2023-08-06T03:33:30;18.70;99.90
64226;DHT22;50545;56.064;26.178;2023-08-06T03:35:59;18.80;99.90
64226;DHT22;50545;56.064;26.178;2023-08-06T03:38:28;18.80;99.90
64226;DHT22;50545;56.064;26.178;2023-08-06T03:40:58;18.90;99.90
64226;DHT22;50545;56.064;26.178;2023-08-06T03:43:27;18.90;99.90
64226;DHT22;50545;56.064;26.178;2023-08-06T03:45:55;19.00;99.90
64226;DHT22;50545;56.064;26.178;2023-08-06T03:48:22;19.00;99.90
64226;DHT22;50545;56.064;26.178;2023-08-06T03:50:50;19.10;99.90
64226;DHT22;50545;56.064;26.178;2023-08-06T03:53:17;19.10;99.90
64226;DHT22;50545;56.064;26.178;2023-08-06T03:55:45;19.20;99.90
64226;DHT22;50545;56.064;26.178;2023-08-06T03:58:12;19.20;99.90
64226;DHT22;50545;56.064;26.178;2023-08-06T04:00:40;19.30;99.90
64226;DHT22;50545;56.064;26.178;2023-08-06T04:03:07;19.30;99.90
64226;DHT22;50545;56.064;26.178;2023-08-06T04:05:35;19.30;99.90
64226;DHT22;50545;56.064;26.178;2023-08-06T04:08:03;19.40;99.90
64226;DHT22;50545;56.064;26.178;2023-08-06T04:10:31;19.40;99.90
64226;DHT22;50545;56.064;26.178;2023-08-06T04:12:58;19.50;99.90
64226;DHT22;50545;56.064;26.178;2023-08-06T04:15:26;19.50;99.90
64226;DHT22;50545;56.064;26.178;2023-08-06T04:17:53;19.50;99.90
64226;DHT22;50545;56.064;26.178;2023-08-06T04:20:23;19.60;99.90
64226;DHT22;50545;56.064;26.178;2023-08-06T04:22:50;19.60;99.90
64226;DHT22;50545;56.064;26.178;2023-08-06T04:25:18;19.60;99.90
64226;DHT22;50545;56.064;26.178;2023-08-06T04:27:48;19.60;99.90
64226;DHT22;50545;56.064;26.178;2023-08-06T04:30:15;19.70;99.90
64226;DHT22;50545;56.064;26.178;2023-08-06T04:32:43;19.70;99.90
64226;DHT22;50545;56.064;26.178;2023-08-06T04:35:10;19.70;99.90
64226;DHT22;50545;56.064;26.178;2023-08-06T04:37:38;19.70;99.90
64226;DHT22;50545;56.064;26.178;2023-08-06T04:40:06;19.80;99.90
64226;DHT22;50545;56.064;26.178;2023-08-06T04:42:33;19.80;99.90
64226;DHT22;50545;56.064;26.178;2023-08-06T04:45:01;19.80;99.90
64226;DHT22;50545;56.064;26.178;2023-08-06T04:47:29;19.80;99.90
64226;DHT22;50545;56.064;26.178;2023-08-06T04:49:57;19.90;99.90
64226;DHT22;50545;56.064;26.178;2023-08-06T04:52:24;20.00;99.90
64226;DHT22;50545;56.064;26.178;2023-08-06T04:54:55;20.00;99.90
64226;DHT22;50545;56.064;26.178;2023-08-06T04:57:22;20.10;99.90
64226;DHT22;50545;56.064;26.178;2023-08-06T04:59:50;20.20;99.90
64226;DHT22;50545;56.064;26.178;2023-08-06T05:02:17;20.30;99.90
64226;DHT22;50545;56.064;26.178;2023-08-06T05:04:45;20.30;99.90
64226;DHT22;50545;56.064;26.178;2023-08-06T05:07:13;20.30;99.90
64226;DHT22;50545;56.064;26.178;2023-08-06T05:09:40;20.40;99.90
64226;DHT22;50545;56.064;26.178;2023-08-06T05:12:08;20.40;99.90
64226;DHT22;50545;56.064;26.178;2023-08-06T05:14:36;20.50;99.90
64226;DHT22;50545;56.064;26.178;2023-08-06T05:17:04;20.50;99.90
64226;DHT22;50545;56.064;26.178;2023-08-06T05:19:31;20.60;99.90
64226;DHT22;50545;56.064;26.178;2023-08-06T05:21:59;20.70;99.90
64226;DHT22;50545;56.064;26.178;2023-08-06T05:24:28;20.70;99.90
64226;DHT22;50545;56.064;26.178;2023-08-06T05:26:55;20.80;99.90
64226;DHT22;50545;56.064;26.178;2023-08-06T05:29:23;20.90;99.90
64226;DHT22;50545;56.064;26.178;2023-08-06T05:31:50;21.00;99.90
64226;DHT22;50545;56.064;26.178;2023-08-06T05:34:18;21.10;99.90
64226;DHT22;50545;56.064;26.178;2023-08-06T05:36:46;21.10;99.90
64226;DHT22;50545;56.064;26.178;2023-08-06T05:39:13;21.20;99.90
64226;DHT22;50545;56.064;26.178;2023-08-06T05:41:41;21.30;99.90
64226;DHT22;50545;56.064;26.178;2023-08-06T05:44:08;21.40;99.90
64226;DHT22;50545;56.064;26.178;2023-08-06T05:46:36;21.50;99.90
64226;DHT22;50545;56.064;26.178;2023-08-06T05:49:04;21.50;99.90
64226;DHT22;50545;56.064;26.178;2023-08-06T05:51:32;21.60;99.90
64226;DHT22;50545;56.064;26.178;2023-08-06T05:53:59;21.70;99.90
64226;DHT22;50545;56.064;26.178;2023-08-06T05:56:26;21.80;99.90
64226;DHT22;50545;56.064;26.178;2023-08-06T05:58:54;21.90;99.90
64226;DHT22;50545;56.064;26.178;2023-08-06T06:01:21;22.00;99.90
64226;DHT22;50545;56.064;26.178;2023-08-06T06:03:49;22.00;99.90
64226;DHT22;50545;56.064;26.178;2023-08-06T06:06:17;22.20;99.90
64226;DHT22;50545;56.064;26.178;2023-08-06T06:08:45;22.30;99.90
64226;DHT22;50545;56.064;26.178;2023-08-06T06:11:12;22.40;99.90
64226;DHT22;50545;56.064;26.178;2023-08-06T06:13:40;22.40;99.90
64226;DHT22;50545;56.064;26.178;2023-08-06T06:16:07;22.50;99.90
64226;DHT22;50545;56.064;26.178;2023-08-06T06:18:35;22.50;99.90
64226;DHT22;50545;56.064;26.178;2023-08-06T06:21:02;22.60;99.90
64226;DHT22;50545;56.064;26.178;2023-08-06T06:23:30;22.60;99.90
64226;DHT22;50545;56.064;26.178;2023-08-06T06:25:58;22.70;99.90
64226;DHT22;50545;56.064;26.178;2023-08-06T06:28:25;22.90;99.90
64226;DHT22;50545;56.064;26.178;2023-08-06T06:30:53;23.00;99.90
64226;DHT22;50545;56.064;26.178;2023-08-06T06:33:20;23.10;99.90
64226;DHT22;50545;56.064;26.178;2023-08-06T06:35:49;23.30;99.90
64226;DHT22;50545;56.064;26.178;2023-08-06T06:38:16;23.40;99.90
64226;DHT22;50545;56.064;26.178;2023-08-06T06:40:44;23.50;99.90
64226;DHT22;50545;56.064;26.178;2023-08-06T06:43:11;23.60;99.90
64226;DHT22;50545;56.064;26.178;2023-08-06T06:45:38;23.70;99.90
64226;DHT22;50545;56.064;26.178;2023-08-06T06:48:06;23.70;99.90
64226;DHT22;50545;56.064;26.178;2023-08-06T06:50:35;23.80;99.90
64226;DHT22;50545;56.064;26.178;2023-08-06T06:53:03;23.90;99.90
64226;DHT22;50545;56.064;26.178;2023-08-06T06:55:31;24.00;99.90
64226;DHT22;50545;56.064;26.178;2023-08-06T06:57:58;24.10;99.90
64226;DHT22;50545;56.064;26.178;2023-08-06T07:00:25;24.20;99.90
64226;DHT22;50545;56.064;26.178;2023-08-06T07:02:53;24.30;99.90
64226;DHT22;50545;56.064;26.178;2023-08-06T07:05:21;24.40;99.90
64226;DHT22;50545;56.064;26.178;2023-08-06T07:07:48;24.50;99.90
64226;DHT22;50545;56.064;26.178;2023-08-06T07:10:16;24.60;99.90
64226;DHT22;50545;56.064;26.178;2023-08-06T07:12:43;24.70;99.90
64226;DHT22;50545;56.064;26.178;2023-08-06T07:15:11;24.80;99.90
64226;DHT22;50545;56.064;26.178;2023-08-06T07:17:38;24.90;99.90
64226;DHT22;50545;56.064;26.178;2023-08-06T07:20:07;25.00;99.90
64226;DHT22;50545;56.064;26.178;2023-08-06T07:22:35;25.10;99.90
64226;DHT22;50545;56.064;26.178;2023-08-06T07:25:03;25.20;99.90
64226;DHT22;50545;56.064;26.178;2023-08-06T07:27:31;25.30;99.90
64226;DHT22;50545;56.064;26.178;2023-08-06T07:29:59;25.40;99.90
64226;DHT22;50545;56.064;26.178;2023-08-06T07:32:26;25.50;99.90
64226;DHT22;50545;56.064;26.178;2023-08-06T07:34:55;25.60;99.90
64226;DHT22;50545;56.064;26.178;2023-08-06T07:37:27;25.70;99.90
64226;DHT22;50545;56.064;26.178;2023-08-06T07:39:57;25.80;99.90
64226;DHT22;50545;56.064;26.178;2023-08-06T07:42:25;25.90;99.90
64226;DHT22;50545;56.064;26.178;2023-08-06T07:44:54;26.00;99.90
64226;DHT22;50545;56.064;26.178;2023-08-06T07:47:22;26.10;99.90
64226;DHT22;50545;56.064;26.178;2023-08-06T07:49:50;26.20;99.90
64226;DHT22;50545;56.064;26.178;2023-08-06T07:52:18;26.30;99.90
64226;DHT22;50545;56.064;26.178;2023-08-06T07:54:45;26.30;99.90
64226;DHT22;50545;56.064;26.178;2023-08-06T07:57:13;26.40;99.10
64226;DHT22;50545;56.064;26.178;2023-08-06T07:59:42;26.50;99.20
64226;DHT22;50545;56.064;26.178;2023-08-06T08:02:09;26.50;99.30
64226;DHT22;50545;56.064;26.178;2023-08-06T08:04:37;26.50;97.40
64226;DHT22;50545;56.064;26.178;2023-08-06T08:07:04;26.60;98.00
64226;DHT22;50545;56.064;26.178;2023-08-06T08:09:34;26.60;98.80
64226;DHT22;50545;56.064;26.178;2023-08-06T08:12:01;26.70;97.20
64226;DHT22;50545;56.064;26.178;2023-08-06T08:14:30;26.80;97.40
64226;DHT22;50545;56.064;26.178;2023-08-06T08:17:04;26.90;97.90
64226;DHT22;50545;56.064;26.178;2023-08-06T08:19:33;27.00;97.70
64226;DHT22;50545;56.064;26.178;2023-08-06T08:22:00;27.00;97.50
64226;DHT22;50545;56.064;26.178;2023-08-06T08:24:27;27.20;98.00
64226;DHT22;50545;56.064;26.178;2023-08-06T08:26:56;27.30;98.10
64226;DHT22;50545;56.064;26.178;2023-08-06T08:29:24;27.40;97.30
64226;DHT22;50545;56.064;26.178;2023-08-06T08:31:51;27.60;96.80
64226;DHT22;50545;56.064;26.178;2023-08-06T08:34:20;27.60;94.80
64226;DHT22;50545;56.064;26.178;2023-08-06T08:36:47;27.70;95.50
64226;DHT22;50545;56.064;26.178;2023-08-06T08:39:14;27.80;96.00
64226;DHT22;50545;56.064;26.178;2023-08-06T08:41:42;27.90;94.90
64226;DHT22;50545;56.064;26.178;2023-08-06T08:44:10;27.90;95.30
64226;DHT22;50545;56.064;26.178;2023-08-06T08:46:40;28.00;94.80
64226;DHT22;50545;56.064;26.178;2023-08-06T08:49:07;28.10;96.40
64226;DHT22;50545;56.064;26.178;2023-08-06T08:51:36;28.20;94.10
64226;DHT22;50545;56.064;26.178;2023-08-06T08:54:04;28.30;94.30
64226;DHT22;50545;56.064;26.178;2023-08-06T08:56:31;28.30;93.40
64226;DHT22;50545;56.064;26.178;2023-08-06T08:58:59;28.30;93.80
64226;DHT22;50545;56.064;26.178;2023-08-06T09:01:27;28.40;92.80
64226;DHT22;50545;56.064;26.178;2023-08-06T09:03:57;28.50;93.90
64226;DHT22;50545;56.064;26.178;2023-08-06T09:06:26;28.50;92.20
64226;DHT22;50545;56.064;26.178;2023-08-06T09:09:01;28.50;92.70
64226;DHT22;50545;56.064;26.178;2023-08-06T09:11:47;28.50;91.90
64226;DHT22;50545;56.064;26.178;2023-08-06T09:14:16;28.60;92.20
64226;DHT22;50545;56.064;26.178;2023-08-06T09:16:44;28.70;93.20
64226;DHT22;50545;56.064;26.178;2023-08-06T09:19:13;28.80;92.70
64226;DHT22;50545;56.064;26.178;2023-08-06T09:21:43;28.90;91.00
64226;DHT22;50545;56.064;26.178;2023-08-06T09:24:11;28.90;91.70
64226;DHT22;50545;56.064;26.178;2023-08-06T09:26:41;29.00;90.70
64226;DHT22;50545;56.064;26.178;2023-08-06T09:29:09;29.00;91.50
64226;DHT22;50545;56.064;26.178;2023-08-06T09:31:46;29.20;91.30
64226;DHT22;50545;56.064;26.178;2023-08-06T09:34:18;29.20;90.90
64226;DHT22;50545;56.064;26.178;2023-08-06T09:36:53;29.30;89.00
64226;DHT22;50545;56.064;26.178;2023-08-06T09:39:26;29.40;91.00
64226;DHT22;50545;56.064;26.178;2023-08-06T09:42:00;29.40;89.70
64226;DHT22;50545;56.064;26.178;2023-08-06T09:44:31;29.50;89.10
64226;DHT22;50545;56.064;26.178;2023-08-06T09:47:01;29.50;90.40
64226;DHT22;50545;56.064;26.178;2023-08-06T09:49:41;29.60;90.20
64226;DHT22;50545;56.064;26.178;2023-08-06T09:52:11;29.70;90.70
64226;DHT22;50545;56.064;26.178;2023-08-06T09:54:39;29.90;90.50
64226;DHT22;50545;56.064;26.178;2023-08-06T09:57:08;29.90;88.00
64226;DHT22;50545;56.064;26.178;2023-08-06T09:59:37;29.90;88.20
64226;DHT22;50545;56.064;26.178;2023-08-06T10:02:12;29.80;88.70
64226;DHT22;50545;56.064;26.178;2023-08-06T10:04:40;29.70;86.60
64226;DHT22;50545;56.064;26.178;2023-08-06T10:07:11;29.70;89.20
64226;DHT22;50545;56.064;26.178;2023-08-06T10:09:38;29.80;87.70
64226;DHT22;50545;56.064;26.178;2023-08-06T10:12:06;29.90;88.60
64226;DHT22;50545;56.064;26.178;2023-08-06T10:14:36;30.10;87.50
64226;DHT22;50545;56.064;26.178;2023-08-06T10:17:05;30.20;86.90
64226;DHT22;50545;56.064;26.178;2023-08-06T10:19:34;30.30;86.20
64226;DHT22;50545;56.064;26.178;2023-08-06T10:22:15;30.40;86.00
64226;DHT22;50545;56.064;26.178;2023-08-06T10:24:58;30.50;87.40
64226;DHT22;50545;56.064;26.178;2023-08-06T10:27:40;30.60;82.70
64226;DHT22;50545;56.064;26.178;2023-08-06T10:35:38;30.60;84.10
64226;DHT22;50545;56.064;26.178;2023-08-06T10:54:25;30.70;83.30
64226;DHT22;50545;56.064;26.178;2023-08-06T10:56:53;31.20;79.70
64226;DHT22;50545;56.064;26.178;2023-08-06T10:59:20;31.30;82.40
64226;DHT22;50545;56.064;26.178;2023-08-06T11:01:48;31.20;80.50
64226;DHT22;50545;56.064;26.178;2023-08-06T11:04:15;31.40;82.60
64226;DHT22;50545;56.064;26.178;2023-08-06T11:06:44;31.40;80.40
64226;DHT22;50545;56.064;26.178;2023-08-06T11:09:11;31.30;81.20
64226;DHT22;50545;56.064;26.178;2023-08-06T11:11:39;31.40;82.80
64226;DHT22;50545;56.064;26.178;2023-08-06T11:14:06;31.40;82.70
64226;DHT22;50545;56.064;26.178;2023-08-06T11:16:34;31.50;77.60
64226;DHT22;50545;56.064;26.178;2023-08-06T11:19:02;31.50;76.80
64226;DHT22;50545;56.064;26.178;2023-08-06T11:21:30;31.40;77.60
64226;DHT22;50545;56.064;26.178;2023-08-06T11:23:57;31.10;77.50
64226;DHT22;50545;56.064;26.178;2023-08-06T11:26:25;30.80;78.20
64226;DHT22;50545;56.064;26.178;2023-08-06T11:28:54;30.80;79.50
64226;DHT22;50545;56.064;26.178;2023-08-06T11:31:22;30.90;77.60
64226;DHT22;50545;56.064;26.178;2023-08-06T11:33:54;31.00;81.70
64226;DHT22;50545;56.064;26.178;2023-08-06T11:36:39;31.20;79.50
64226;DHT22;50545;56.064;26.178;2023-08-06T11:39:07;31.30;81.20
64226;DHT22;50545;56.064;26.178;2023-08-06T11:41:36;31.40;79.20
64226;DHT22;50545;56.064;26.178;2023-08-06T11:44:05;31.50;81.20
64226;DHT22;50545;56.064;26.178;2023-08-06T11:46:55;31.60;81.40
64226;DHT22;50545;56.064;26.178;2023-08-06T11:52:19;32.00;79.60
64226;DHT22;50545;56.064;26.178;2023-08-06T11:55:09;32.20;79.00
64226;DHT22;50545;56.064;26.178;2023-08-06T11:57:39;32.10;75.40
64226;DHT22;50545;56.064;26.178;2023-08-06T12:00:12;32.20;75.70
64226;DHT22;50545;56.064;26.178;2023-08-06T12:02:44;32.00;75.00
64226;DHT22;50545;56.064;26.178;2023-08-06T12:05:15;31.80;74.50
64226;DHT22;50545;56.064;26.178;2023-08-06T12:07:45;31.80;77.20
64226;DHT22;50545;56.064;26.178;2023-08-06T12:10:13;31.60;76.40
64226;DHT22;50545;56.064;26.178;2023-08-06T12:12:41;31.70;78.20
64226;DHT22;50545;56.064;26.178;2023-08-06T12:15:10;31.70;76.00
64226;DHT22;50545;56.064;26.178;2023-08-06T12:17:38;31.80;76.30
64226;DHT22;50545;56.064;26.178;2023-08-06T12:20:06;31.90;76.40
64226;DHT22;50545;56.064;26.178;2023-08-06T12:22:35;32.00;77.70
64226;DHT22;50545;56.064;26.178;2023-08-06T12:25:04;32.10;77.60
64226;DHT22;50545;56.064;26.178;2023-08-06T12:27:35;32.10;76.70
64226;DHT22;50545;56.064;26.178;2023-08-06T12:30:05;32.30;73.60
64226;DHT22;50545;56.064;26.178;2023-08-06T12:32:33;32.30;74.70
64226;DHT22;50545;56.064;26.178;2023-08-06T12:35:01;32.20;73.90
64226;DHT22;50545;56.064;26.178;2023-08-06T12:37:28;32.20;73.50
64226;DHT22;50545;56.064;26.178;2023-08-06T12:39:56;32.20;74.70
64226;DHT22;50545;56.064;26.178;2023-08-06T12:42:23;32.20;74.40
64226;DHT22;50545;56.064;26.178;2023-08-06T12:44:51;32.10;72.90
64226;DHT22;50545;56.064;26.178;2023-08-06T12:47:19;32.30;76.40
64226;DHT22;50545;56.064;26.178;2023-08-06T12:49:47;32.30;72.00
64226;DHT22;50545;56.064;26.178;2023-08-06T12:52:14;32.20;72.50
64226;DHT22;50545;56.064;26.178;2023-08-06T12:54:42;32.20;74.00
64226;DHT22;50545;56.064;26.178;2023-08-06T12:57:10;32.10;73.90
64226;DHT22;50545;56.064;26.178;2023-08-06T12:59:37;32.40;76.90
64226;DHT22;50545;56.064;26.178;2023-08-06T13:02:05;32.70;72.00
64226;DHT22;50545;56.064;26.178;2023-08-06T13:04:32;32.80;71.30
64226;DHT22;50545;56.064;26.178;2023-08-06T13:07:01;32.40;68.40
64226;DHT22;50545;56.064;26.178;2023-08-06T13:09:28;32.10;73.10
64226;DHT22;50545;56.064;26.178;2023-08-06T13:11:58;32.10;69.90
64226;DHT22;50545;56.064;26.178;2023-08-06T13:14:27;31.90;71.50
64226;DHT22;50545;56.064;26.178;2023-08-06T13:16:55;31.90;71.60
64226;DHT22;50545;56.064;26.178;2023-08-06T13:19:23;31.90;70.90
64226;DHT22;50545;56.064;26.178;2023-08-06T13:24:19;32.50;74.80
64226;DHT22;50545;56.064;26.178;2023-08-06T13:26:46;32.80;68.80
64226;DHT22;50545;56.064;26.178;2023-08-06T13:29:14;33.00;66.70
64226;DHT22;50545;56.064;26.178;2023-08-06T13:31:41;33.10;69.10
64226;DHT22;50545;56.064;26.178;2023-08-06T13:34:09;33.40;67.90
64226;DHT22;50545;56.064;26.178;2023-08-06T13:36:36;33.80;67.90
64226;DHT22;50545;56.064;26.178;2023-08-06T13:39:03;34.10;66.30
64226;DHT22;50545;56.064;26.178;2023-08-06T13:41:32;34.00;64.50
64226;DHT22;50545;56.064;26.178;2023-08-06T13:43:59;33.90;64.70
64226;DHT22;50545;56.064;26.178;2023-08-06T13:46:27;33.80;66.70
64226;DHT22;50545;56.064;26.178;2023-08-06T13:48:55;33.70;65.00
64226;DHT22;50545;56.064;26.178;2023-08-06T13:51:22;33.70;67.40
64226;DHT22;50545;56.064;26.178;2023-08-06T13:53:50;33.60;66.20
64226;DHT22;50545;56.064;26.178;2023-08-06T13:56:19;33.50;66.00
64226;DHT22;50545;56.064;26.178;2023-08-06T13:58:46;33.50;66.20
64226;DHT22;50545;56.064;26.178;2023-08-06T14:01:17;33.60;65.40
64226;DHT22;50545;56.064;26.178;2023-08-06T14:03:46;33.50;65.30
64226;DHT22;50545;56.064;26.178;2023-08-06T14:06:13;33.50;66.20
64226;DHT22;50545;56.064;26.178;2023-08-06T14:08:41;33.30;65.00
64226;DHT22;50545;56.064;26.178;2023-08-06T14:11:08;33.30;66.90
64226;DHT22;50545;56.064;26.178;2023-08-06T14:13:37;33.20;64.00
64226;DHT22;50545;56.064;26.178;2023-08-06T14:16:05;33.20;64.90
64226;DHT22;50545;56.064;26.178;2023-08-06T14:18:32;33.10;66.50
64226;DHT22;50545;56.064;26.178;2023-08-06T14:21:01;33.10;65.30
64226;DHT22;50545;56.064;26.178;2023-08-06T14:23:29;33.10;64.60
64226;DHT22;50545;56.064;26.178;2023-08-06T14:25:57;33.20;65.80
64226;DHT22;50545;56.064;26.178;2023-08-06T14:28:24;33.10;63.40
64226;DHT22;50545;56.064;26.178;2023-08-06T14:30:52;33.20;65.80
64226;DHT22;50545;56.064;26.178;2023-08-06T14:33:23;33.40;65.50
64226;DHT22;50545;56.064;26.178;2023-08-06T14:35:53;33.60;63.90
64226;DHT22;50545;56.064;26.178;2023-08-06T14:38:23;33.60;64.00
64226;DHT22;50545;56.064;26.178;2023-08-06T14:40:50;33.40;64.80
64226;DHT22;50545;56.064;26.178;2023-08-06T14:43:18;33.30;64.80
64226;DHT22;50545;56.064;26.178;2023-08-06T14:45:45;33.40;64.20
64226;DHT22;50545;56.064;26.178;2023-08-06T14:48:13;33.50;63.50
64226;DHT22;50545;56.064;26.178;2023-08-06T14:50:40;33.50;63.80
64226;DHT22;50545;56.064;26.178;2023-08-06T14:53:08;33.50;63.70
64226;DHT22;50545;56.064;26.178;2023-08-06T14:55:37;33.50;64.00
64226;DHT22;50545;56.064;26.178;2023-08-06T14:58:05;33.50;62.90
64226;DHT22;50545;56.064;26.178;2023-08-06T15:00:32;33.50;63.40
64226;DHT22;50545;56.064;26.178;2023-08-06T15:03:00;33.50;62.20
64226;DHT22;50545;56.064;26.178;2023-08-06T15:05:27;33.60;63.40
64226;DHT22;50545;56.064;26.178;2023-08-06T15:07:55;33.80;63.30
64226;DHT22;50545;56.064;26.178;2023-08-06T15:10:22;34.20;62.50
64226;DHT22;50545;56.064;26.178;2023-08-06T15:12:54;34.30;59.90
64226;DHT22;50545;56.064;26.178;2023-08-06T15:15:22;34.10;60.10
64226;DHT22;50545;56.064;26.178;2023-08-06T15:17:49;34.00;60.60
64226;DHT22;50545;56.064;26.178;2023-08-06T15:20:17;34.20;61.50
64226;DHT22;50545;56.064;26.178;2023-08-06T15:22:44;34.40;59.80
64226;DHT22;50545;56.064;26.178;2023-08-06T15:25:11;34.60;59.90
64226;DHT22;50545;56.064;26.178;2023-08-06T15:27:39;34.60;59.90
64226;DHT22;50545;56.064;26.178;2023-08-06T15:30:07;34.50;60.70
64226;DHT22;50545;56.064;26.178;2023-08-06T15:32:35;34.50;61.20
64226;DHT22;50545;56.064;26.178;2023-08-06T15:35:03;34.30;60.30
64226;DHT22;50545;56.064;26.178;2023-08-06T15:37:31;34.20;61.40
64226;DHT22;50545;56.064;26.178;2023-08-06T15:39:59;34.00;61.60
64226;DHT22;50545;56.064;26.178;2023-08-06T15:42:28;34.00;60.10
64226;DHT22;50545;56.064;26.178;2023-08-06T15:44:55;34.00;61.80
64226;DHT22;50545;56.064;26.178;2023-08-06T15:47:22;34.10;61.70
64226;DHT22;50545;56.064;26.178;2023-08-06T15:49:50;34.00;62.00
64226;DHT22;50545;56.064;26.178;2023-08-06T15:52:17;34.00;61.50
64226;DHT22;50545;56.064;26.178;2023-08-06T15:54:45;34.00;62.70
64226;DHT22;50545;56.064;26.178;2023-08-06T15:57:13;33.90;61.60